createdAt,value
2022-10-22T00:01:12.583Z,95894.41
2022-10-22T00:03:42.054Z,95896.03
2022-10-22T00:06:10.276Z,95903.41
2022-10-22T00:08:38.411Z,95860.53
2022-10-22T00:11:11.677Z,95884.91
2022-10-22T00:13:39.889Z,95894.84
2022-10-22T00:16:08.636Z,95884.50
2022-10-22T00:18:36.801Z,95840.56
2022-10-22T00:21:07.646Z,95890.59
2022-10-22T00:23:36.204Z,95908.19
2022-10-22T00:26:04.399Z,95913.06
2022-10-22T00:28:32.500Z,95858.47
2022-10-22T00:31:01.622Z,95913.88
2022-10-22T00:33:31.212Z,95911.19
2022-10-22T00:35:59.596Z,95907.69
2022-10-22T00:38:29.079Z,95909.47
2022-10-22T00:40:57.450Z,95852.47
2022-10-22T00:43:25.720Z,95869.88
2022-10-22T00:45:53.745Z,95680.91
2022-10-22T00:48:23.876Z,95867.66
2022-10-22T00:50:55.992Z,95856.50
2022-10-22T00:53:26.081Z,95868.56
2022-10-22T00:55:56.017Z,95865.50
2022-10-22T00:58:26.284Z,95835.81
2022-10-22T01:00:55.143Z,95802.59
2022-10-22T01:03:23.238Z,95881.19
2022-10-22T01:05:55.716Z,95868.50
2022-10-22T01:08:28.250Z,95869.19
2022-10-22T01:11:05.031Z,95855.31
2022-10-22T01:13:39.701Z,95777.34
2022-10-22T01:16:12.947Z,95862.91
2022-10-22T01:18:46.997Z,95837.03
2022-10-22T01:21:21.383Z,95843.63
2022-10-22T01:24:35.863Z,95816.56
2022-10-22T01:27:27.481Z,95852.53
2022-10-22T01:29:59.424Z,95844.03
2022-10-22T01:32:28.464Z,95832.41
2022-10-22T01:34:58.649Z,95835.03
2022-10-22T01:37:29.573Z,95784.94
2022-10-22T01:39:58.287Z,95802.78
2022-10-22T01:42:26.537Z,95821.38
2022-10-22T01:44:54.596Z,95788.63
2022-10-22T01:47:33.151Z,95841.78
2022-10-22T01:50:24.177Z,95802.53
2022-10-22T01:53:07.634Z,95787.25
2022-10-22T01:55:43.018Z,95827.34
2022-10-22T01:58:20.898Z,95820.66
2022-10-22T02:00:53.609Z,95811.59
2022-10-22T02:03:26.024Z,95822.97
2022-10-22T02:05:56.956Z,95805.31
2022-10-22T02:08:27.241Z,95630.66
2022-10-22T02:10:56.269Z,95790.06
2022-10-22T02:13:32.295Z,95766.81
2022-10-22T02:16:02.005Z,95792.38
2022-10-22T02:18:35.335Z,95797.91
2022-10-22T02:21:06.179Z,95738.63
2022-10-22T02:23:35.335Z,95779.84
2022-10-22T02:26:09.023Z,95800.16
2022-10-22T02:28:39.757Z,95784.72
2022-10-22T02:31:18.408Z,95812.34
2022-10-22T02:33:50.680Z,95813.97
2022-10-22T02:36:20.481Z,95794.88
2022-10-22T02:38:49.455Z,95823.41
2022-10-22T02:41:17.773Z,95802.63
2022-10-22T02:43:51.841Z,95787.09
2022-10-22T02:46:20.026Z,95755.63
2022-10-22T02:48:49.518Z,95824.34
2022-10-22T02:51:18.210Z,95789.38
2022-10-22T02:53:46.277Z,95739.31
2022-10-22T02:56:15.824Z,95709.03
2022-10-22T02:58:43.967Z,95797.78
2022-10-22T03:01:15.257Z,95783.94
2022-10-22T03:03:44.431Z,95733.00
2022-10-22T03:06:14.017Z,95781.09
2022-10-22T03:08:43.324Z,95775.78
2022-10-22T03:11:11.461Z,95798.50
2022-10-22T03:13:39.768Z,95793.63
2022-10-22T03:16:08.161Z,95690.59
2022-10-22T03:18:36.761Z,95793.19
2022-10-22T03:21:10.081Z,95803.41
2022-10-22T03:23:40.648Z,95785.78
2022-10-22T03:26:08.943Z,95793.56
2022-10-22T03:28:37.418Z,95821.09
2022-10-22T03:31:05.584Z,95818.06
2022-10-22T03:33:33.645Z,95801.22
2022-10-22T03:36:02.049Z,95805.38
2022-10-22T03:38:30.550Z,95808.84
2022-10-22T03:41:00.135Z,95803.28
2022-10-22T03:43:28.418Z,95817.69
2022-10-22T03:45:56.565Z,95803.63
2022-10-22T03:48:25.847Z,95679.00
2022-10-22T03:50:53.987Z,95838.38
2022-10-22T03:53:22.159Z,95778.81
2022-10-22T03:55:50.520Z,95825.22
2022-10-22T03:58:20.162Z,95816.41
2022-10-22T04:00:48.640Z,95818.06
2022-10-22T04:03:16.790Z,95849.53
2022-10-22T04:05:44.843Z,95851.53
2022-10-22T04:08:13.084Z,95815.69
2022-10-22T04:10:41.143Z,95760.31
2022-10-22T04:13:09.237Z,95857.00
2022-10-22T04:15:38.788Z,95802.91
2022-10-22T04:18:07.059Z,95845.56
2022-10-22T04:20:35.148Z,95806.34
2022-10-22T04:23:03.265Z,95804.38
2022-10-22T04:25:31.386Z,95858.22
2022-10-22T04:27:59.502Z,95791.16
2022-10-22T04:30:27.716Z,95869.28
2022-10-22T04:32:57.105Z,95851.84
2022-10-22T04:37:58.303Z,95849.84
2022-10-22T04:40:26.538Z,95818.00
2022-10-22T04:42:54.570Z,95836.44
2022-10-22T04:45:22.641Z,95836.59
2022-10-22T04:47:50.686Z,95853.63
2022-10-22T04:50:20.154Z,95832.97
2022-10-22T04:52:48.664Z,95710.84
2022-10-22T04:55:17.156Z,95865.38
2022-10-22T04:57:45.252Z,95834.00
2022-10-22T05:00:14.100Z,95862.59
2022-10-22T05:02:44.805Z,95848.50
2022-10-22T05:05:13.068Z,95820.41
2022-10-22T05:07:42.973Z,95795.41
2022-10-22T05:10:11.578Z,95802.31
2022-10-22T05:12:39.685Z,95825.66
2022-10-22T05:15:09.237Z,95824.81
2022-10-22T05:17:38.746Z,95845.28
2022-10-22T05:20:08.940Z,95870.25
2022-10-22T05:22:37.116Z,95851.31
2022-10-22T05:25:07.613Z,95890.69
2022-10-22T05:27:35.786Z,95866.63
2022-10-22T05:30:04.209Z,95894.28
2022-10-22T05:32:32.268Z,95882.19
2022-10-22T05:35:00.517Z,95903.78
2022-10-22T05:37:28.834Z,95907.03
2022-10-22T05:40:06.593Z,95900.47
2022-10-22T05:42:46.545Z,95909.53
2022-10-22T05:45:14.712Z,95885.66
2022-10-22T05:47:42.936Z,95933.81
2022-10-22T05:50:11.382Z,95939.50
2022-10-22T05:52:39.843Z,95921.94
2022-10-22T05:55:09.102Z,95917.13
2022-10-22T05:57:37.316Z,95924.97
2022-10-22T06:00:11.654Z,95935.66
2022-10-22T06:02:43.048Z,95931.75
2022-10-22T06:05:11.989Z,95963.75
2022-10-22T06:07:40.304Z,95919.34
2022-10-22T06:10:11.099Z,95913.09
2022-10-22T06:12:39.662Z,95985.41
2022-10-22T06:15:11.421Z,95978.06
2022-10-22T06:17:39.633Z,95733.34
2022-10-22T06:20:09.223Z,95989.84
2022-10-22T06:22:37.408Z,95912.16
2022-10-22T06:25:06.697Z,95977.53
2022-10-22T06:27:34.738Z,96025.19
2022-10-22T06:30:02.987Z,95991.69
2022-10-22T06:32:32.596Z,95986.81
2022-10-22T06:35:05.087Z,95977.78
2022-10-22T06:37:33.438Z,96026.47
2022-10-22T06:40:01.743Z,96034.88
2022-10-22T06:42:29.882Z,95987.34
2022-10-22T06:44:57.927Z,96025.63
2022-10-22T06:47:26.098Z,96006.34
2022-10-22T06:49:55.664Z,96036.44
2022-10-22T06:52:23.680Z,96050.31
2022-10-22T06:54:52.633Z,96050.91
2022-10-22T06:57:20.966Z,96066.28
2022-10-22T06:59:49.225Z,96057.44
2022-10-22T07:02:17.367Z,96052.91
2022-10-22T07:04:46.248Z,96049.19
2022-10-22T07:07:16.897Z,96051.13
2022-10-22T07:09:47.473Z,95983.34
2022-10-22T07:12:16.382Z,96057.22
2022-10-22T07:14:44.538Z,96067.69
2022-10-22T07:17:13.449Z,96080.38
2022-10-22T07:19:41.625Z,96043.63
2022-10-22T07:22:09.858Z,96070.84
2022-10-22T07:24:39.485Z,96067.47
2022-10-22T07:27:10.951Z,96064.69
2022-10-22T07:29:44.869Z,96063.03
2022-10-22T07:32:14.836Z,96090.97
2022-10-22T07:34:43.984Z,96094.94
2022-10-22T07:37:12.173Z,96094.22
2022-10-22T07:39:41.800Z,96105.06
2022-10-22T07:42:09.896Z,96102.72
2022-10-22T07:44:37.986Z,96091.22
2022-10-22T07:47:06.245Z,96107.06
2022-10-22T07:49:34.438Z,96127.28
2022-10-22T07:52:02.640Z,96132.66
2022-10-22T07:54:30.986Z,96119.47
2022-10-22T07:57:00.550Z,96131.59
2022-10-22T07:59:28.760Z,96120.06
2022-10-22T08:01:57.511Z,96049.66
2022-10-22T08:04:26.798Z,96123.75
2022-10-22T08:06:55.562Z,96119.81
2022-10-22T08:09:23.644Z,96113.75
2022-10-22T08:11:51.914Z,96126.78
2022-10-22T08:14:22.431Z,96132.63
2022-10-22T08:16:54.927Z,96116.31
2022-10-22T08:19:23.429Z,96128.03
2022-10-22T08:21:51.690Z,96129.09
2022-10-22T08:24:20.988Z,96103.69
2022-10-22T08:26:50.245Z,96111.38
2022-10-22T08:29:18.469Z,96132.75
2022-10-22T08:31:48.002Z,96106.38
2022-10-22T08:34:16.111Z,96107.44
2022-10-22T08:36:44.313Z,96117.34
2022-10-22T08:39:12.372Z,96119.69
2022-10-22T08:41:47.012Z,96128.28
2022-10-22T08:44:32.494Z,96098.16
2022-10-22T08:47:12.063Z,96115.16
2022-10-22T08:49:42.311Z,96105.81
2022-10-22T08:52:14.190Z,96091.13
2022-10-22T08:54:49.802Z,96109.03
2022-10-22T08:57:25.572Z,96114.00
2022-10-22T08:59:59.004Z,96124.84
2022-10-22T09:02:39.910Z,96114.00
2022-10-22T09:05:22.069Z,96112.94
2022-10-22T09:07:51.252Z,96109.41
2022-10-22T09:10:20.191Z,96116.50
2022-10-22T09:12:49.231Z,96085.91
2022-10-22T09:15:18.798Z,96129.53
2022-10-22T09:18:07.753Z,96090.06
2022-10-22T09:20:40.194Z,96122.22
2022-10-22T09:23:23.394Z,96105.97
2022-10-22T09:25:53.487Z,96127.63
2022-10-22T09:28:21.551Z,96121.69
2022-10-22T09:30:49.916Z,96112.75
2022-10-22T09:33:24.745Z,96127.09
2022-10-22T09:35:55.325Z,96133.06
2022-10-22T09:38:27.010Z,96117.72
2022-10-22T09:40:56.799Z,96141.28
2022-10-22T09:43:25.202Z,96138.38
2022-10-22T09:45:58.287Z,96113.88
2022-10-22T09:48:34.435Z,96149.00
2022-10-22T09:51:07.918Z,96145.72
2022-10-22T09:53:41.345Z,96142.38
2022-10-22T09:56:11.971Z,96140.75
2022-10-22T09:58:44.857Z,96147.94
2022-10-22T10:01:19.358Z,96150.66
2022-10-22T10:03:49.883Z,96154.47
2022-10-22T10:06:22.798Z,96152.16
2022-10-22T10:08:51.516Z,96137.00
2022-10-22T10:11:29.297Z,96150.28
2022-10-22T10:14:05.902Z,96166.13
2022-10-22T10:16:54.093Z,96113.66
2022-10-22T10:19:37.100Z,96148.09
2022-10-22T10:22:11.873Z,96154.75
2022-10-22T10:24:50.522Z,96142.38
2022-10-22T10:27:24.824Z,96115.81
2022-10-22T10:29:57.546Z,96137.00
2022-10-22T10:32:51.920Z,96140.25
2022-10-22T10:35:25.932Z,96143.63
2022-10-22T10:38:06.389Z,96130.06
2022-10-22T10:40:42.169Z,96139.13
2022-10-22T10:43:13.929Z,96121.50
2022-10-22T10:45:54.842Z,96140.84
2022-10-22T10:48:51.207Z,96132.97
2022-10-22T10:51:39.708Z,96130.50
2022-10-22T10:54:21.480Z,96133.06
2022-10-22T10:56:53.278Z,96120.97
2022-10-22T10:59:36.638Z,96114.50
2022-10-22T11:02:23.622Z,96116.38
2022-10-22T11:05:09.213Z,96104.44
2022-10-22T11:07:43.536Z,96123.25
2022-10-22T11:10:26.159Z,96118.66
2022-10-22T11:12:59.022Z,96113.66
2022-10-22T11:15:29.620Z,96124.22
2022-10-22T11:18:03.754Z,96102.00
2022-10-22T11:20:39.099Z,96125.97
2022-10-22T11:23:19.426Z,96120.28
2022-10-22T11:25:50.389Z,96119.34
2022-10-22T11:28:22.313Z,96117.94
2022-10-22T11:30:54.144Z,96122.59
2022-10-22T11:33:24.549Z,96098.44
2022-10-22T11:35:53.979Z,96114.44
2022-10-22T11:38:26.785Z,96094.88
2022-10-22T11:40:58.549Z,96114.38
2022-10-22T11:43:32.570Z,96124.31
2022-10-22T11:46:10.939Z,96123.22
2022-10-22T11:48:40.821Z,96129.75
2022-10-22T11:51:30.996Z,96127.84
2022-10-22T11:54:03.323Z,96116.78
2022-10-22T11:56:39.523Z,96120.72
2022-10-22T11:59:34.519Z,96122.31
2022-10-22T12:02:03.211Z,96129.91
2022-10-22T12:04:42.776Z,96131.66
2022-10-22T12:07:33.447Z,96129.38
2022-10-22T12:10:07.496Z,96123.59
2022-10-22T12:12:39.294Z,96125.63
2022-10-22T12:15:24.885Z,96129.00
2022-10-22T12:17:59.816Z,96137.28
2022-10-22T12:20:28.203Z,96134.97
2022-10-22T12:22:57.208Z,96124.66
2022-10-22T12:25:30.080Z,96107.94
2022-10-22T12:28:01.443Z,96132.97
2022-10-22T12:30:31.588Z,96132.59
2022-10-22T12:33:01.460Z,96128.81
2022-10-22T12:35:31.229Z,96134.88
2022-10-22T12:38:01.700Z,96124.44
2022-10-22T12:40:37.269Z,96132.41
2022-10-22T12:43:11.789Z,96126.69
2022-10-22T12:45:42.006Z,96123.00
2022-10-22T12:48:17.867Z,96142.34
2022-10-22T12:50:47.346Z,96143.72
2022-10-22T12:53:16.720Z,96140.84
2022-10-22T12:55:47.854Z,96121.88
2022-10-22T12:58:18.956Z,96114.81
2022-10-22T13:00:47.698Z,96029.97
2022-10-22T13:03:31.598Z,96110.09
2022-10-22T13:06:13.499Z,96132.41
2022-10-22T13:08:42.033Z,96128.28
2022-10-22T13:11:14.225Z,96135.88
2022-10-22T13:13:45.670Z,96138.75
2022-10-22T13:16:18.761Z,96119.78
2022-10-22T13:18:47.673Z,96116.81
2022-10-22T13:21:27.972Z,96143.78
2022-10-22T13:24:00.103Z,96128.03
2022-10-22T13:26:34.638Z,96031.72
2022-10-22T13:29:03.168Z,96039.13
2022-10-22T13:31:33.679Z,96123.59
2022-10-22T13:34:09.848Z,96048.09
2022-10-22T13:36:39.981Z,96122.78
2022-10-22T13:39:09.042Z,96119.38
2022-10-22T13:41:40.939Z,96114.97
2022-10-22T13:44:09.150Z,96125.22
2022-10-22T13:46:42.426Z,96123.59
2022-10-22T13:49:15.632Z,96120.88
2022-10-22T13:51:44.159Z,96110.63
2022-10-22T13:54:17.214Z,96115.34
2022-10-22T13:56:46.991Z,96139.31
2022-10-22T13:59:17.279Z,96120.06
2022-10-22T14:01:47.937Z,96124.88
2022-10-22T14:04:17.841Z,96129.53
2022-10-22T14:06:48.242Z,96124.88
2022-10-22T14:09:17.571Z,96136.19
2022-10-22T14:11:47.072Z,96147.41
2022-10-22T14:14:17.344Z,96046.47
2022-10-22T14:16:45.506Z,96149.63
2022-10-22T14:19:16.799Z,96135.66
2022-10-22T14:21:45.171Z,96129.69
2022-10-22T14:24:13.620Z,96145.63
2022-10-22T14:26:42.462Z,96135.88
2022-10-22T14:29:12.236Z,96143.91
2022-10-22T14:34:11.483Z,96147.59
2022-10-22T14:36:39.593Z,96134.06
2022-10-22T14:39:07.711Z,96116.03
2022-10-22T14:41:35.880Z,96130.38
2022-10-22T14:44:04.017Z,96145.59
2022-10-22T14:46:33.933Z,96108.97
2022-10-22T14:49:03.121Z,96145.44
2022-10-22T14:51:31.236Z,96110.50
2022-10-22T14:53:59.299Z,96155.50
2022-10-22T14:56:27.542Z,96154.41
2022-10-22T14:58:56.083Z,96137.06
2022-10-22T15:01:24.119Z,96065.56
2022-10-22T15:03:54.633Z,96143.94
2022-10-22T15:06:23.414Z,96129.28
2022-10-22T15:08:51.544Z,96135.16
2022-10-22T15:11:19.949Z,96144.66
2022-10-22T15:13:48.933Z,96141.06
2022-10-22T15:16:18.462Z,96153.19
2022-10-22T15:18:46.740Z,96150.22
2022-10-22T15:21:18.191Z,96073.59
2022-10-22T15:23:46.600Z,96160.53
2022-10-22T15:26:15.406Z,96165.72
2022-10-22T15:28:44.387Z,96160.16
2022-10-22T15:31:14.621Z,96167.66
2022-10-22T15:33:43.479Z,96183.28
2022-10-22T15:36:14.668Z,96186.41
2022-10-22T15:38:44.146Z,96181.00
2022-10-22T15:41:13.569Z,96202.56
2022-10-22T15:43:42.083Z,96188.06
2022-10-22T15:46:13.144Z,96203.97
2022-10-22T15:48:41.242Z,96223.63
2022-10-22T15:51:11.229Z,96232.31
2022-10-22T15:53:39.404Z,96227.81
2022-10-22T15:56:11.689Z,96243.81
2022-10-22T15:58:39.967Z,96242.31
2022-10-22T16:01:10.226Z,96237.81
2022-10-22T16:03:39.622Z,96209.59
2022-10-22T16:06:09.875Z,96222.47
2022-10-22T16:08:38.670Z,96260.25
2022-10-22T16:11:08.580Z,96271.25
2022-10-22T16:13:37.631Z,96254.91
2022-10-22T16:16:07.639Z,96279.44
2022-10-22T16:18:35.657Z,96286.06
2022-10-22T16:21:04.066Z,96281.16
2022-10-22T16:23:34.825Z,96285.19
2022-10-22T16:26:04.115Z,96298.34
2022-10-22T16:31:09.042Z,96299.94
2022-10-22T16:33:41.596Z,96303.84
2022-10-22T16:36:11.556Z,96304.53
2022-10-22T16:38:39.779Z,96311.81
2022-10-22T16:41:09.557Z,96291.69
2022-10-22T16:43:39.371Z,96311.78
2022-10-22T16:46:07.691Z,96311.84
2022-10-22T16:48:37.905Z,96332.47
2022-10-22T16:51:11.314Z,96221.56
2022-10-22T16:53:39.505Z,96347.72
2022-10-22T16:56:09.806Z,96341.78
2022-10-22T16:58:39.606Z,96324.94
2022-10-22T17:01:09.064Z,96339.84
2022-10-22T17:03:38.239Z,96330.09
2022-10-22T17:06:07.653Z,96349.47
2022-10-22T17:08:38.558Z,96351.09
2022-10-22T17:11:08.183Z,96363.38
2022-10-22T17:13:36.491Z,96342.31
2022-10-22T17:16:07.607Z,96362.81
2022-10-22T17:18:37.183Z,96355.09
2022-10-22T17:21:05.823Z,96349.28
2022-10-22T17:23:33.872Z,96365.25
2022-10-22T17:26:03.307Z,96368.22
2022-10-22T17:28:31.531Z,96368.66
2022-10-22T17:31:06.007Z,96329.88
2022-10-22T17:33:34.819Z,96346.88
2022-10-22T17:36:03.452Z,96355.16
2022-10-22T17:38:31.508Z,96365.31
2022-10-22T17:41:04.104Z,96369.63
2022-10-22T17:43:34.444Z,96348.44
2022-10-22T17:46:10.824Z,96367.09
2022-10-22T17:48:38.980Z,96372.47
2022-10-22T17:51:07.996Z,96382.28
2022-10-22T17:53:36.105Z,96388.72
2022-10-22T17:56:07.134Z,96391.13
2022-10-22T17:58:35.281Z,96396.88
2022-10-22T18:01:03.665Z,96389.31
2022-10-22T18:03:33.590Z,96392.13
2022-10-22T18:06:08.312Z,96388.16
2022-10-22T18:08:36.497Z,96396.44
2022-10-22T18:11:07.479Z,96391.09
2022-10-22T18:13:35.604Z,96398.69
2022-10-22T18:16:03.930Z,96393.69
2022-10-22T18:18:33.620Z,96336.72
2022-10-22T18:21:01.775Z,96394.78
2022-10-22T18:23:30.071Z,96406.41
2022-10-22T18:25:58.188Z,96386.75
2022-10-22T18:28:26.326Z,96403.44
2022-10-22T18:30:54.446Z,96411.03
2022-10-22T18:33:24.291Z,96418.84
2022-10-22T18:35:53.774Z,96427.84
2022-10-22T18:38:22.517Z,96426.81
2022-10-22T18:40:51.163Z,96407.78
2022-10-22T18:43:21.813Z,96431.50
2022-10-22T18:45:50.104Z,96429.84
2022-10-22T18:48:19.358Z,96403.50
2022-10-22T18:50:48.376Z,96413.06
2022-10-22T18:53:18.534Z,96416.81
2022-10-22T18:55:46.748Z,96419.72
2022-10-22T18:58:14.897Z,96429.72
2022-10-22T19:00:43.106Z,96416.09
2022-10-22T19:03:12.315Z,96434.53
2022-10-22T19:05:46.474Z,96421.72
2022-10-22T19:08:17.038Z,96427.53
2022-10-22T19:10:46.914Z,96431.38
2022-10-22T19:13:17.875Z,96428.22
2022-10-22T19:15:46.348Z,96428.69
2022-10-22T19:18:15.285Z,96444.44
2022-10-22T19:20:44.510Z,96440.34
2022-10-22T19:23:13.643Z,96336.47
2022-10-22T19:25:44.366Z,96435.09
2022-10-22T19:28:14.032Z,96438.72
2022-10-22T19:30:44.714Z,96407.81
2022-10-22T19:33:12.996Z,96424.63
2022-10-22T19:35:40.968Z,96428.88
2022-10-22T19:38:09.099Z,96430.38
2022-10-22T19:40:37.192Z,96440.56
2022-10-22T19:43:05.868Z,96447.31
2022-10-22T19:45:35.381Z,96426.44
2022-10-22T19:48:03.881Z,96433.78
2022-10-22T19:50:35.259Z,96450.81
2022-10-22T19:53:03.547Z,96434.16
2022-10-22T19:55:37.900Z,96446.75
2022-10-22T19:58:06.099Z,96440.56
2022-10-22T20:00:36.639Z,96434.84
2022-10-22T20:03:06.256Z,96451.53
2022-10-22T20:05:35.532Z,96451.03
2022-10-22T20:08:07.962Z,96437.97
2022-10-22T20:10:36.075Z,96463.38
2022-10-22T20:13:04.344Z,96462.69
2022-10-22T20:15:32.882Z,96452.84
2022-10-22T20:18:02.752Z,96464.66
2022-10-22T20:20:30.807Z,96443.00
2022-10-22T20:23:00.406Z,96460.34
2022-10-22T20:25:28.719Z,96440.03
2022-10-22T20:27:59.663Z,96396.38
2022-10-22T20:30:28.026Z,96459.00
2022-10-22T20:32:57.935Z,96456.66
2022-10-22T20:35:31.668Z,96451.78
2022-10-22T20:38:00.182Z,96462.50
2022-10-22T20:40:32.252Z,96476.72
2022-10-22T20:43:00.468Z,96464.91
2022-10-22T20:45:29.039Z,96483.56
2022-10-22T20:48:02.719Z,96483.09
2022-10-22T20:50:37.044Z,96487.63
2022-10-22T20:53:06.570Z,96478.34
2022-10-22T20:55:34.666Z,96481.69
2022-10-22T20:58:04.981Z,96484.72
2022-10-22T21:00:39.713Z,96486.44
2022-10-22T21:03:08.278Z,96497.00
2022-10-22T21:05:37.929Z,96488.63
2022-10-22T21:08:06.233Z,96416.06
2022-10-22T21:10:35.283Z,96472.25
2022-10-22T21:13:03.381Z,96479.34
2022-10-22T21:15:31.533Z,96447.22
2022-10-22T21:17:59.853Z,96456.84
2022-10-22T21:20:28.051Z,96458.16
2022-10-22T21:22:57.557Z,96478.78
2022-10-22T21:25:25.673Z,96482.06
2022-10-22T21:27:53.811Z,96456.63
2022-10-22T21:30:21.892Z,96484.63
2022-10-22T21:32:50.055Z,96476.69
2022-10-22T21:35:18.346Z,96467.56
2022-10-22T21:37:48.669Z,96484.25
2022-10-22T21:40:18.303Z,96483.66
2022-10-22T21:42:46.456Z,96465.66
2022-10-22T21:45:17.522Z,96460.97
2022-10-22T21:47:50.643Z,96472.91
2022-10-22T21:50:18.830Z,96391.28
2022-10-22T21:52:46.942Z,96456.78
2022-10-22T21:55:15.088Z,96460.97
2022-10-22T21:57:44.745Z,96463.31
2022-10-22T22:00:14.251Z,96468.56
2022-10-22T22:02:42.545Z,96460.91
2022-10-22T22:05:11.115Z,96475.47
2022-10-22T22:07:39.541Z,96471.38
2022-10-22T22:10:08.827Z,96449.22
2022-10-22T22:12:39.671Z,96467.56
2022-10-22T22:15:11.876Z,96472.44
2022-10-22T22:17:40.018Z,96455.75
2022-10-22T22:20:10.147Z,96454.81
2022-10-22T22:22:38.722Z,96475.63
2022-10-22T22:25:07.320Z,96468.44
2022-10-22T22:27:35.779Z,96401.31
2022-10-22T22:30:04.222Z,96473.56
2022-10-22T22:32:34.029Z,96392.94
2022-10-22T22:35:02.184Z,96479.63
2022-10-22T22:37:30.276Z,96457.66
2022-10-22T22:39:58.334Z,96487.31
2022-10-22T22:42:26.534Z,96476.97
2022-10-22T22:44:54.663Z,96493.16
2022-10-22T22:47:22.738Z,96489.88
2022-10-22T22:49:52.192Z,96475.13
2022-10-22T22:54:48.812Z,96477.91
2022-10-22T22:57:17.197Z,96492.13
2022-10-22T22:59:45.836Z,96496.94
2022-10-22T23:02:14.002Z,96502.06
2022-10-22T23:04:42.097Z,96505.44
2022-10-22T23:07:11.575Z,96504.22
2022-10-22T23:09:39.991Z,96487.88
2022-10-22T23:12:08.265Z,96497.28
2022-10-22T23:14:36.524Z,96474.34
2022-10-22T23:17:04.749Z,96495.13
2022-10-22T23:19:32.888Z,96400.22
2022-10-22T23:22:01.022Z,96501.69
2022-10-22T23:24:31.351Z,96495.63
2022-10-22T23:27:02.746Z,96502.78
2022-10-22T23:29:32.305Z,96503.50
2022-10-22T23:32:01.405Z,96498.72
2022-10-22T23:34:30.061Z,96477.97
2022-10-22T23:36:58.448Z,96503.00
2022-10-22T23:39:28.883Z,96486.94
2022-10-22T23:41:59.062Z,96491.94
2022-10-22T23:44:27.457Z,96402.78
2022-10-22T23:46:55.518Z,96491.66
2022-10-22T23:49:31.004Z,96485.91
2022-10-22T23:51:59.070Z,96497.88
2022-10-22T23:54:27.386Z,96487.88
2022-10-22T23:56:55.426Z,96486.47
2022-10-22T23:59:24.885Z,96480.28
